Decoded Metar for DTTB (BIZERTE in TUNISIA) (IATA:N/A) | Meteo·Mobile Aviation Weather
aviador You're here:

DTTB Decoded Metar

BIZERTE in TUNISIA
Report Time2018-11-21 07:00:00
UTC Time2018-11-21 07:31:55
Flight Rules vfr VFR
Wind330° at 02 kt
W.Decomp.*RWY 29: 1.6 kt HW 1.3 kt RCW
RWY 26: 0.7 kt HW 1.9 kt RCW
W.Rank330° ranks 7
Current wind is below 330° avg. (7.1)
Visibility9999 m
Phenomena:N/A
Clouds:N/A
Expected CloudBase > 400 ft AGL from Temp-Dew spread
CeilingNone
Temp10°C (ISA -5)
Dew Point09°C (94% RH)
AAT9.1°C
QNH1015 hPa
Density Alt-499 ft
Elevation10 ft
Report Wrong Elevation
Raw Report
DTTB 210700Z 33002KT CAVOK 10/09 Q1015=

Extra information for DTTB:More info

Metar Taf Metar & Taf Last 4 Metars F.Rules Stats Wind Profile Meteogram Temp Stats Airport Information Weather charts Add Link Nearby VenuesMetar ALERT Operation Metar Decoded Social comments